sensor_id;sensor_type;location;lat;lon;timestamp;pressure;altitude;pressure_sealevel;temperature;humidity
1776;BME280;885;42.626;23.200;2023-07-20T00:02:23;143576.72;;;21.73;83.79
1776;BME280;885;42.626;23.200;2023-07-20T00:04:51;142748.19;;;21.39;84.92
1776;BME280;885;42.626;23.200;2023-07-20T00:07:19;142736.72;;;21.34;86.48
1776;BME280;885;42.626;23.200;2023-07-20T00:09:45;143123.63;;;21.39;87.01
1776;BME280;885;42.626;23.200;2023-07-20T00:12:13;142365.91;;;21.36;82.95
1776;BME280;885;42.626;23.200;2023-07-20T00:14:43;142766.63;;;21.47;84.05
1776;BME280;885;42.626;23.200;2023-07-20T00:17:09;143919.94;;;21.59;87.16
1776;BME280;885;42.626;23.200;2023-07-20T00:19:37;143911.81;;;21.55;87.05
1776;BME280;885;42.626;23.200;2023-07-20T00:22:04;143928.06;;;21.62;86.84
1776;BME280;885;42.626;23.200;2023-07-20T00:24:32;144292.13;;;21.57;89.37
1776;BME280;885;42.626;23.200;2023-07-20T00:26:59;144296.78;;;21.59;88.05
1776;BME280;885;42.626;23.200;2023-07-20T00:29:28;143918.75;;;21.58;87.19
1776;BME280;885;42.626;23.200;2023-07-20T00:31:54;143131.75;;;21.43;87.18
1776;BME280;885;42.626;23.200;2023-07-20T00:34:21;143117.84;;;21.36;87.38
1776;BME280;885;42.626;23.200;2023-07-20T00:36:48;143105.16;;;21.31;87.86
1776;BME280;885;42.626;23.200;2023-07-20T00:39:15;142696.38;;;21.16;89.53
1776;BME280;885;42.626;23.200;2023-07-20T00:41:43;142689.47;;;21.13;89.98
1776;BME280;885;42.626;23.200;2023-07-20T00:44:10;141494.09;;;20.83;89.06
1776;BME280;885;42.626;23.200;2023-07-20T00:46:37;141123.69;;;20.85;86.73
1776;BME280;885;42.626;23.200;2023-07-20T00:49:04;141515.81;;;20.92;88.15
1776;BME280;885;42.626;23.200;2023-07-20T00:51:31;142287.75;;;21.02;89.76
1776;BME280;885;42.626;23.200;2023-07-20T00:53:58;142288.94;;;21.02;90.11
1776;BME280;885;42.626;23.200;2023-07-20T00:56:25;141882.81;;;20.89;89.99
1776;BME280;885;42.626;23.200;2023-07-20T00:58:53;141874.81;;;20.85;90.59
1776;BME280;885;42.626;23.200;2023-07-20T01:01:21;141464.38;;;20.70;91.04
1776;BME280;885;42.626;23.200;2023-07-20T01:03:48;141470.09;;;20.72;91.50
1776;BME280;885;42.626;23.200;2023-07-20T01:06:25;142217.69;;;20.71;93.49
1776;BME280;885;42.626;23.200;2023-07-20T01:09:04;141806.06;;;20.55;94.52
1776;BME280;885;42.626;23.200;2023-07-20T01:11:38;141788.91;;;20.47;95.60
1776;BME280;885;42.626;23.200;2023-07-20T01:14:11;140971.03;;;20.17;96.58
1776;BME280;885;42.626;23.200;2023-07-20T01:16:38;140191.50;;;20.04;94.80
1776;BME280;885;42.626;23.200;2023-07-20T01:19:05;140200.56;;;20.08;94.63
1776;BME280;885;42.626;23.200;2023-07-20T01:21:37;140201.72;;;20.08;94.65
1776;BME280;885;42.626;23.200;2023-07-20T01:24:30;140601.06;;;20.19;94.10
1776;BME280;885;42.626;23.200;2023-07-20T01:27:18;140208.47;;;20.11;94.49
1776;BME280;885;42.626;23.200;2023-07-20T01:30:03;140189.22;;;20.03;95.48
1776;BME280;885;42.626;23.200;2023-07-20T01:32:33;140573.84;;;20.07;96.08
1776;BME280;885;42.626;23.200;2023-07-20T01:35:02;140548.84;;;19.96;98.17
1776;BME280;885;42.626;23.200;2023-07-20T01:37:31;140906.16;;;19.89;99.24
1776;BME280;885;42.626;23.200;2023-07-20T01:40:00;141273.69;;;19.86;100.00
1776;BME280;885;42.626;23.200;2023-07-20T01:42:26;140476.22;;;19.64;100.00
1776;BME280;885;42.626;23.200;2023-07-20T01:44:53;140836.75;;;19.58;100.00
1776;BME280;885;42.626;23.200;2023-07-20T01:47:20;141222.31;;;19.63;100.00
1776;BME280;885;42.626;23.200;2023-07-20T01:49:48;141217.72;;;19.61;100.00
1776;BME280;885;42.626;23.200;2023-07-20T01:52:15;141184.66;;;19.46;100.00
1776;BME280;885;42.626;23.200;2023-07-20T01:54:41;141168.69;;;19.39;100.00
1776;BME280;885;42.626;23.200;2023-07-20T01:57:08;140780.94;;;19.33;100.00
1776;BME280;885;42.626;23.200;2023-07-20T01:59:35;141165.25;;;19.38;100.00
1776;BME280;885;42.626;23.200;2023-07-20T02:02:02;141937.53;;;19.48;100.00
1776;BME280;885;42.626;23.200;2023-07-20T02:04:28;141922.59;;;19.42;100.00
1776;BME280;885;42.626;23.200;2023-07-20T02:06:57;141519.81;;;19.29;100.00
1776;BME280;885;42.626;23.200;2023-07-20T02:09:23;141511.81;;;19.26;100.00
1776;BME280;885;42.626;23.200;2023-07-20T02:11:50;141899.63;;;19.32;100.00
1776;BME280;885;42.626;23.200;2023-07-20T02:14:17;141516.41;;;19.28;100.00
1776;BME280;885;42.626;23.200;2023-07-20T02:16:43;141514.13;;;19.27;100.00
1776;BME280;885;42.626;23.200;2023-07-20T02:19:10;141125.28;;;19.20;100.00
1776;BME280;885;42.626;23.200;2023-07-20T02:21:37;140738.81;;;19.15;100.00
1776;BME280;885;42.626;23.200;2023-07-20T02:24:05;140719.47;;;19.06;100.00
1776;BME280;885;42.626;23.200;2023-07-20T02:26:32;141107.03;;;19.12;100.00
1776;BME280;885;42.626;23.200;2023-07-20T02:28:59;141101.31;;;19.10;100.00
1776;BME280;885;42.626;23.200;2023-07-20T02:31:25;141088.75;;;19.04;100.00
1776;BME280;885;42.626;23.200;2023-07-20T02:33:52;141444.31;;;18.96;100.00
1776;BME280;885;42.626;23.200;2023-07-20T02:36:19;141455.78;;;19.01;100.00
1776;BME280;885;42.626;23.200;2023-07-20T02:38:46;140685.38;;;18.91;100.00
1776;BME280;885;42.626;23.200;2023-07-20T02:41:14;141060.22;;;18.91;100.00
1776;BME280;885;42.626;23.200;2023-07-20T02:43:41;141064.78;;;18.93;100.00
1776;BME280;885;42.626;23.200;2023-07-20T02:46:07;141057.97;;;18.90;100.00
1776;BME280;885;42.626;23.200;2023-07-20T02:48:34;140675.13;;;18.86;100.00
1776;BME280;885;42.626;23.200;2023-07-20T02:51:01;140294.59;;;18.83;100.00
1776;BME280;885;42.626;23.200;2023-07-20T02:53:27;140689.91;;;18.93;100.00
1776;BME280;885;42.626;23.200;2023-07-20T02:55:54;141048.84;;;18.86;100.00
1776;BME280;885;42.626;23.200;2023-07-20T02:58:22;141032.84;;;18.79;100.00
1776;BME280;885;42.626;23.200;2023-07-20T03:00:49;141410.03;;;18.81;100.00
1776;BME280;885;42.626;23.200;2023-07-20T03:03:16;141414.59;;;18.83;100.00
1776;BME280;885;42.626;23.200;2023-07-20T03:05:42;141408.88;;;18.80;100.00
1776;BME280;885;42.626;23.200;2023-07-20T03:08:09;141791.81;;;18.84;100.00
1776;BME280;885;42.626;23.200;2023-07-20T03:10:39;141411.16;;;18.81;100.00
1776;BME280;885;42.626;23.200;2023-07-20T03:13:06;141005.50;;;18.67;100.00
1776;BME280;885;42.626;23.200;2023-07-20T03:15:34;140629.59;;;18.66;100.00
1776;BME280;885;42.626;23.200;2023-07-20T03:18:01;140612.53;;;18.59;100.00
1776;BME280;885;42.626;23.200;2023-07-20T03:20:29;141359.69;;;18.59;100.00
1776;BME280;885;42.626;23.200;2023-07-20T03:22:55;141380.28;;;18.68;100.00
1776;BME280;885;42.626;23.200;2023-07-20T03:25:22;141003.19;;;18.66;100.00
1776;BME280;885;42.626;23.200;2023-07-20T03:27:49;141392.84;;;18.73;100.00
1776;BME280;885;42.626;23.200;2023-07-20T03:30:16;141392.84;;;18.73;100.00
1776;BME280;885;42.626;23.200;2023-07-20T03:32:44;141386.00;;;18.70;100.00
1776;BME280;885;42.626;23.200;2023-07-20T03:35:10;141394.00;;;18.74;100.00
1776;BME280;885;42.626;23.200;2023-07-20T03:37:38;141405.41;;;18.79;100.00
1776;BME280;885;42.626;23.200;2023-07-20T03:40:10;141392.84;;;18.73;100.00
1776;BME280;885;42.626;23.200;2023-07-20T03:42:45;141394.00;;;18.74;100.00
1776;BME280;885;42.626;23.200;2023-07-20T03:45:11;141406.56;;;18.79;100.00
1776;BME280;885;42.626;23.200;2023-07-20T03:47:38;140648.94;;;18.75;98.17
1776;BME280;885;42.626;23.200;2023-07-20T03:50:07;139874.59;;;18.63;97.29
1776;BME280;885;42.626;23.200;2023-07-20T03:52:35;139864.41;;;18.58;98.68
1776;BME280;885;42.626;23.200;2023-07-20T03:55:03;140252.63;;;18.65;98.94
1776;BME280;885;42.626;23.200;2023-07-20T03:57:29;140634.19;;;18.68;99.88
1776;BME280;885;42.626;23.200;2023-07-20T03:59:58;140266.25;;;18.71;98.50
1776;BME280;885;42.626;23.200;2023-07-20T04:02:25;140267.38;;;18.71;97.82
1776;BME280;885;42.626;23.200;2023-07-20T04:04:52;139131.03;;;18.64;95.05
1776;BME280;885;42.626;23.200;2023-07-20T04:07:20;139884.78;;;18.67;97.48
1776;BME280;885;42.626;23.200;2023-07-20T04:09:47;140642.13;;;18.72;100.00
1776;BME280;885;42.626;23.200;2023-07-20T04:12:13;141048.84;;;18.86;100.00
1776;BME280;885;42.626;23.200;2023-07-20T04:14:40;141819.31;;;18.96;100.00
1776;BME280;885;42.626;23.200;2023-07-20T04:17:07;142223.13;;;19.10;100.00
1776;BME280;885;42.626;23.200;2023-07-20T04:19:34;142614.41;;;19.17;100.00
1776;BME280;885;42.626;23.200;2023-07-20T04:22:01;142622.53;;;19.21;99.62
1776;BME280;885;42.626;23.200;2023-07-20T04:24:29;142629.41;;;19.24;99.53
1776;BME280;885;42.626;23.200;2023-07-20T04:26:56;142630.59;;;19.24;99.81
1776;BME280;885;42.626;23.200;2023-07-20T04:29:23;142235.78;;;19.15;99.51
1776;BME280;885;42.626;23.200;2023-07-20T04:31:49;141450.03;;;18.98;99.60
1776;BME280;885;42.626;23.200;2023-07-20T04:34:16;141814.75;;;18.94;100.00
1776;BME280;885;42.626;23.200;2023-07-20T04:36:43;141821.63;;;18.97;100.00
1776;BME280;885;42.626;23.200;2023-07-20T04:39:10;141057.97;;;18.90;98.90
1776;BME280;885;42.626;23.200;2023-07-20T04:41:38;140672.81;;;18.85;97.76
1776;BME280;885;42.626;23.200;2023-07-20T04:44:05;141057.97;;;18.90;98.71
1776;BME280;885;42.626;23.200;2023-07-20T04:46:31;141073.94;;;18.97;97.09
1776;BME280;885;42.626;23.200;2023-07-20T04:48:58;141089.91;;;19.04;96.85
1776;BME280;885;42.626;23.200;2023-07-20T04:51:25;141485.53;;;19.14;96.18
1776;BME280;885;42.626;23.200;2023-07-20T04:53:52;142265.69;;;19.28;97.17
1776;BME280;885;42.626;23.200;2023-07-20T04:56:18;143059.16;;;19.48;97.73
1776;BME280;885;42.626;23.200;2023-07-20T04:58:46;143456.66;;;19.58;97.80
1776;BME280;885;42.626;23.200;2023-07-20T05:01:13;143847.31;;;19.65;99.09
1776;BME280;885;42.626;23.200;2023-07-20T05:03:40;144613.91;;;19.72;100.00
1776;BME280;885;42.626;23.200;2023-07-20T05:06:06;144995.50;;;19.75;100.00
1776;BME280;885;42.626;23.200;2023-07-20T05:08:33;145406.63;;;19.91;100.00
1776;BME280;885;42.626;23.200;2023-07-20T05:11:00;146175.16;;;19.99;100.00
1776;BME280;885;42.626;23.200;2023-07-20T05:13:27;146558.34;;;20.03;100.00
1776;BME280;885;42.626;23.200;2023-07-20T05:15:55;146569.03;;;20.07;100.00
1776;BME280;885;42.626;23.200;2023-07-20T05:18:22;146573.75;;;20.09;100.00
1776;BME280;885;42.626;23.200;2023-07-20T05:20:49;146953.50;;;20.11;100.00
1776;BME280;885;42.626;23.200;2023-07-20T05:23:18;146953.50;;;20.11;100.00
1776;BME280;885;42.626;23.200;2023-07-20T05:25:44;146967.78;;;20.17;100.00
1776;BME280;885;42.626;23.200;2023-07-20T05:28:11;146992.78;;;20.28;100.00
1776;BME280;885;42.626;23.200;2023-07-20T05:30:39;147779.00;;;20.43;100.00
1776;BME280;885;42.626;23.200;2023-07-20T05:33:07;147790.97;;;20.48;100.00
1776;BME280;885;42.626;23.200;2023-07-20T05:35:36;147789.78;;;20.47;100.00
1776;BME280;885;42.626;23.200;2023-07-20T05:38:02;147783.78;;;20.45;100.00
1776;BME280;885;42.626;23.200;2023-07-20T05:40:30;148183.06;;;20.55;100.00
1776;BME280;885;42.626;23.200;2023-07-20T05:42:57;148959.25;;;20.66;100.00
1776;BME280;885;42.626;23.200;2023-07-20T05:45:25;149359.03;;;20.76;100.00
1776;BME280;885;42.626;23.200;2023-07-20T05:47:52;149373.50;;;20.82;100.00
1776;BME280;885;42.626;23.200;2023-07-20T05:50:20;149773.44;;;20.92;100.00
1776;BME280;885;42.626;23.200;2023-07-20T05:52:47;149795.25;;;21.01;100.00
1776;BME280;885;42.626;23.200;2023-07-20T05:55:14;150568.91;;;21.10;100.00
1776;BME280;885;42.626;23.200;2023-07-20T05:57:41;151363.78;;;21.27;100.00
1776;BME280;885;42.626;23.200;2023-07-20T06:00:09;151817.28;;;21.59;100.00
1776;BME280;885;42.626;23.200;2023-07-20T06:02:37;152634.28;;;21.85;100.00
1776;BME280;885;42.626;23.200;2023-07-20T06:05:05;153077.75;;;22.12;98.06
1776;BME280;885;42.626;23.200;2023-07-20T06:07:36;154383.06;;;22.83;94.24
1776;BME280;885;42.626;23.200;2023-07-20T06:10:03;156084.41;;;23.59;91.31
1776;BME280;885;42.626;23.200;2023-07-20T06:12:31;156583.84;;;24.08;86.55
1776;BME280;885;42.626;23.200;2023-07-20T06:14:58;157017.94;;;24.30;86.23
1776;BME280;885;42.626;23.200;2023-07-20T06:17:24;156609.13;;;24.18;86.55
1776;BME280;885;42.626;23.200;2023-07-20T06:19:51;156160.09;;;23.90;87.87
1776;BME280;885;42.626;23.200;2023-07-20T07:14:02;155137.66;;;25.87;73.46
1776;BME280;885;42.626;23.200;2023-07-20T07:16:29;154708.53;;;25.67;73.33
1776;BME280;885;42.626;23.200;2023-07-20T07:18:56;154683.63;;;25.57;74.72
1776;BME280;885;42.626;23.200;2023-07-20T07:21:22;153849.91;;;25.26;75.44
1776;BME280;885;42.626;23.200;2023-07-20T07:23:51;154257.28;;;25.38;74.42
1776;BME280;885;42.626;23.200;2023-07-20T07:26:18;154684.88;;;25.57;73.66
1776;BME280;885;42.626;23.200;2023-07-20T07:28:45;154322.03;;;25.64;71.32
1776;BME280;885;42.626;23.200;2023-07-20T07:31:13;154731.00;;;25.76;71.39
1776;BME280;885;42.626;23.200;2023-07-20T07:33:40;155143.91;;;25.89;72.35
1776;BME280;885;42.626;23.200;2023-07-20T07:36:07;155157.69;;;25.95;71.50
1776;BME280;885;42.626;23.200;2023-07-20T07:38:33;155569.63;;;26.08;71.28
1776;BME280;885;42.626;23.200;2023-07-20T07:41:00;155216.47;;;26.19;68.67
1776;BME280;885;42.626;23.200;2023-07-20T07:43:27;155617.28;;;26.27;68.80
1776;BME280;885;42.626;23.200;2023-07-20T07:45:54;155256.53;;;26.35;67.20
1776;BME280;885;42.626;23.200;2023-07-20T07:48:22;154858.25;;;26.27;66.91
1776;BME280;885;42.626;23.200;2023-07-20T07:50:50;155639.88;;;26.36;68.86
1776;BME280;885;42.626;23.200;2023-07-20T07:53:17;155642.34;;;26.37;67.87
1776;BME280;885;42.626;23.200;2023-07-20T07:55:45;155666.19;;;26.47;67.05
1776;BME280;885;42.626;23.200;2023-07-20T07:58:13;154473.81;;;26.25;65.32
1776;BME280;885;42.626;23.200;2023-07-20T08:00:40;154437.72;;;26.11;66.90
1776;BME280;885;42.626;23.200;2023-07-20T08:03:08;154835.81;;;26.18;67.59
1776;BME280;885;42.626;23.200;2023-07-20T08:05:36;155649.88;;;26.40;68.85
1776;BME280;885;42.626;23.200;2023-07-20T08:08:03;155684.97;;;26.54;67.81
1776;BME280;885;42.626;23.200;2023-07-20T08:10:30;156113.81;;;26.74;67.01
1776;BME280;885;42.626;23.200;2023-07-20T08:12:57;156530.28;;;26.89;67.29
1776;BME280;885;42.626;23.200;2023-07-20T08:15:24;158098.97;;;27.08;73.21
1776;BME280;885;42.626;23.200;2023-07-20T08:17:50;158886.47;;;27.18;75.33
1776;BME280;885;42.626;23.200;2023-07-20T08:20:18;159270.72;;;27.20;76.75
1776;BME280;885;42.626;23.200;2023-07-20T08:22:46;159250.19;;;27.12;77.17
1776;BME280;885;42.626;23.200;2023-07-20T08:25:13;159266.88;;;27.18;77.98
1776;BME280;885;42.626;23.200;2023-07-20T08:27:39;158862.13;;;27.09;76.78
1776;BME280;885;42.626;23.200;2023-07-20T08:30:07;159255.34;;;27.14;76.98
1776;BME280;885;42.626;23.200;2023-07-20T08:32:34;159666.63;;;27.26;76.78
1776;BME280;885;42.626;23.200;2023-07-20T08:35:01;159307.97;;;27.34;73.92
1776;BME280;885;42.626;23.200;2023-07-20T08:37:28;159296.38;;;27.30;74.97
1776;BME280;885;42.626;23.200;2023-07-20T08:39:56;158869.81;;;27.12;74.30
1776;BME280;885;42.626;23.200;2023-07-20T08:42:23;158484.38;;;27.10;73.12
1776;BME280;885;42.626;23.200;2023-07-20T08:44:51;157669.19;;;26.88;72.00
1776;BME280;885;42.626;23.200;2023-07-20T08:47:20;158076.03;;;26.99;72.34
1776;BME280;885;42.626;23.200;2023-07-20T08:49:48;158120.63;;;27.16;69.75
1776;BME280;885;42.626;23.200;2023-07-20T08:52:15;158543.09;;;27.33;70.07
1776;BME280;885;42.626;23.200;2023-07-20T08:54:42;158576.34;;;27.46;69.10
1776;BME280;885;42.626;23.200;2023-07-20T08:57:13;158234.00;;;27.61;65.49
1776;BME280;885;42.626;23.200;2023-07-20T08:59:41;158206.00;;;27.50;66.30
1776;BME280;885;42.626;23.200;2023-07-20T09:02:10;157376.53;;;27.23;67.50
1776;BME280;885;42.626;23.200;2023-07-20T09:04:40;157754.28;;;27.22;69.49
1776;BME280;885;42.626;23.200;2023-07-20T09:07:09;157333.44;;;27.06;69.29
1776;BME280;885;42.626;23.200;2023-07-20T09:09:42;156986.16;;;27.19;66.27
1776;BME280;885;42.626;23.200;2023-07-20T09:12:14;157789.88;;;27.36;67.67
1776;BME280;885;42.626;23.200;2023-07-20T09:14:42;157830.56;;;27.52;65.09
1776;BME280;885;42.626;23.200;2023-07-20T09:17:12;157460.22;;;27.56;63.08
1776;BME280;885;42.626;23.200;2023-07-20T09:19:45;157458.94;;;27.56;63.31
1776;BME280;885;42.626;23.200;2023-07-20T09:22:12;158207.25;;;27.50;68.50
1776;BME280;885;42.626;23.200;2023-07-20T09:24:39;158237.88;;;27.63;66.33
1776;BME280;885;42.626;23.200;2023-07-20T09:27:07;158274.81;;;27.77;65.57
1776;BME280;885;42.626;23.200;2023-07-20T09:29:47;158323.28;;;27.96;62.31
1776;BME280;885;42.626;23.200;2023-07-20T09:32:18;157986.91;;;28.14;59.94
1776;BME280;885;42.626;23.200;2023-07-20T09:34:46;158420.06;;;28.35;59.64
1776;BME280;885;42.626;23.200;2023-07-20T09:37:13;159225.84;;;28.52;60.78
1776;BME280;885;42.626;23.200;2023-07-20T09:39:43;159284.81;;;28.75;58.91
1776;BME280;885;42.626;23.200;2023-07-20T09:42:11;159712.44;;;28.93;58.64
1776;BME280;885;42.626;23.200;2023-07-20T09:44:39;159712.44;;;28.93;59.83
1776;BME280;885;42.626;23.200;2023-07-20T09:47:07;160122.34;;;29.04;59.09
1776;BME280;885;42.626;23.200;2023-07-20T09:49:39;159375.75;;;29.11;56.53
1776;BME280;885;42.626;23.200;2023-07-20T09:52:07;159797.28;;;29.26;56.60
1776;BME280;885;42.626;23.200;2023-07-20T09:54:35;159794.69;;;29.25;56.74
1776;BME280;885;42.626;23.200;2023-07-20T09:57:04;159388.66;;;29.16;57.40
1776;BME280;885;42.626;23.200;2023-07-20T09:59:33;159760.00;;;29.12;58.56
1776;BME280;885;42.626;23.200;2023-07-20T10:02:07;158928.97;;;28.85;58.75
1776;BME280;885;42.626;23.200;2023-07-20T10:04:38;158483.84;;;28.60;60.57
1776;BME280;885;42.626;23.200;2023-07-20T10:07:10;158414.97;;;28.33;63.56
1776;BME280;885;42.626;23.200;2023-07-20T10:09:39;158008.53;;;28.22;62.80
1776;BME280;885;42.626;23.200;2023-07-20T10:12:07;158028.84;;;28.30;61.72
1776;BME280;885;42.626;23.200;2023-07-20T10:14:40;158039.00;;;28.35;61.28
1776;BME280;885;42.626;23.200;2023-07-20T10:17:11;158063.19;;;28.44;59.84
1776;BME280;885;42.626;23.200;2023-07-20T10:19:42;157669.41;;;28.39;58.26
1776;BME280;885;42.626;23.200;2023-07-20T10:22:13;157665.63;;;28.38;59.88
1776;BME280;885;42.626;23.200;2023-07-20T10:24:44;156868.34;;;28.23;57.49
1776;BME280;885;42.626;23.200;2023-07-20T10:27:10;157251.72;;;28.24;59.19
1776;BME280;885;42.626;23.200;2023-07-20T10:29:38;157302.31;;;28.45;57.34
1776;BME280;885;42.626;23.200;2023-07-20T10:32:06;157758.22;;;28.74;56.50
1776;BME280;885;42.626;23.200;2023-07-20T10:34:35;157788.69;;;28.86;54.99
1776;BME280;885;42.626;23.200;2023-07-20T10:37:02;157345.38;;;28.62;56.03
1776;BME280;885;42.626;23.200;2023-07-20T10:39:31;156938.97;;;28.52;54.78
1776;BME280;885;42.626;23.200;2023-07-20T10:42:02;156932.66;;;28.49;56.73
1776;BME280;885;42.626;23.200;2023-07-20T10:44:30;155733.41;;;28.26;55.04
1776;BME280;885;42.626;23.200;2023-07-20T10:47:01;154032.13;;;27.54;56.43
1776;BME280;885;42.626;23.200;2023-07-20T10:49:28;153210.16;;;27.29;57.20
1776;BME280;885;42.626;23.200;2023-07-20T10:52:00;153574.06;;;27.22;59.01
1776;BME280;885;42.626;23.200;2023-07-20T10:54:50;153109.09;;;26.88;61.90
1776;BME280;885;42.626;23.200;2023-07-20T10:57:38;153852.50;;;26.81;65.76
1776;BME280;885;42.626;23.200;2023-07-20T11:00:09;154620.72;;;26.85;69.51
1776;BME280;885;42.626;23.200;2023-07-20T11:02:44;154583.31;;;26.69;71.32
1776;BME280;885;42.626;23.200;2023-07-20T11:05:36;158014.94;;;26.74;85.94
1776;BME280;885;42.626;23.200;2023-07-20T11:08:09;159160.41;;;26.77;90.49
1776;BME280;885;42.626;23.200;2023-07-20T11:10:36;159563.72;;;26.86;89.75
1776;BME280;885;42.626;23.200;2023-07-20T11:13:22;157285.28;;;26.87;74.05
1776;BME280;885;42.626;23.200;2023-07-20T11:16:03;158894.13;;;27.21;78.63
1776;BME280;885;42.626;23.200;2023-07-20T11:18:33;159774.75;;;27.68;76.14
1776;BME280;885;42.626;23.200;2023-07-20T11:21:07;159056.75;;;27.85;70.30
1776;BME280;885;42.626;23.200;2023-07-20T11:23:38;157947.53;;;27.98;64.17
1776;BME280;885;42.626;23.200;2023-07-20T11:26:04;158742.41;;;28.11;66.41
1776;BME280;885;42.626;23.200;2023-07-20T11:28:33;158789.66;;;28.30;64.18
1776;BME280;885;42.626;23.200;2023-07-20T11:31:00;158483.84;;;28.60;60.37
1776;BME280;885;42.626;23.200;2023-07-20T11:33:28;157246.66;;;28.22;58.95
1776;BME280;885;42.626;23.200;2023-07-20T11:35:55;156047.69;;;28.00;58.24
1776;BME280;885;42.626;23.200;2023-07-20T11:38:23;157274.50;;;28.34;58.72
1776;BME280;885;42.626;23.200;2023-07-20T11:40:51;157741.72;;;28.68;57.93
1776;BME280;885;42.626;23.200;2023-07-20T11:43:18;158957.09;;;28.96;59.33
1776;BME280;885;42.626;23.200;2023-07-20T11:45:46;159402.72;;;29.21;58.12
1776;BME280;885;42.626;23.200;2023-07-20T11:48:16;159856.34;;;29.49;57.98
1776;BME280;885;42.626;23.200;2023-07-20T11:50:45;159054.31;;;29.34;56.82
1776;BME280;885;42.626;23.200;2023-07-20T11:53:12;159487.28;;;29.54;56.75
1776;BME280;885;42.626;23.200;2023-07-20T11:55:40;160338.81;;;29.89;57.07
1776;BME280;885;42.626;23.200;2023-07-20T11:58:09;160387.78;;;30.08;54.60
1776;BME280;885;42.626;23.200;2023-07-20T12:00:37;161178.34;;;30.18;56.38
1776;BME280;885;42.626;23.200;2023-07-20T12:03:06;159954.06;;;29.88;54.97
1776;BME280;885;42.626;23.200;2023-07-20T12:05:33;160371.03;;;30.01;55.58
1776;BME280;885;42.626;23.200;2023-07-20T12:08:00;160808.81;;;30.23;55.07
1776;BME280;885;42.626;23.200;2023-07-20T12:10:28;159627.06;;;30.09;51.95
1776;BME280;885;42.626;23.200;2023-07-20T12:13:01;159224.38;;;30.01;51.86
1776;BME280;885;42.626;23.200;2023-07-20T12:15:29;159684.78;;;30.32;51.13
1776;BME280;885;42.626;23.200;2023-07-20T12:17:58;158421.94;;;29.86;50.87
1776;BME280;885;42.626;23.200;2023-07-20T12:20:27;158789.97;;;29.80;52.73
1776;BME280;885;42.626;23.200;2023-07-20T12:22:58;158480.47;;;30.09;49.55
1776;BME280;885;42.626;23.200;2023-07-20T12:25:33;158569.59;;;30.44;47.68
1776;BME280;885;42.626;23.200;2023-07-20T12:28:00;159818.16;;;30.84;47.82
1776;BME280;885;42.626;23.200;2023-07-20T12:30:29;159098.75;;;31.02;44.95
1776;BME280;885;42.626;23.200;2023-07-20T12:32:56;158684.19;;;30.90;45.61
1776;BME280;885;42.626;23.200;2023-07-20T12:35:23;157042.97;;;30.45;44.00
1776;BME280;885;42.626;23.200;2023-07-20T12:37:52;157856.84;;;30.65;46.22
1776;BME280;885;42.626;23.200;2023-07-20T12:40:19;156707.25;;;30.64;42.42
1776;BME280;885;42.626;23.200;2023-07-20T12:42:46;157527.56;;;30.86;44.44
1776;BME280;885;42.626;23.200;2023-07-20T12:45:13;158362.53;;;31.14;44.34
1776;BME280;885;42.626;23.200;2023-07-20T12:47:41;158807.69;;;31.38;43.42
1776;BME280;885;42.626;23.200;2023-07-20T12:50:09;159646.66;;;31.67;45.02
1776;BME280;885;42.626;23.200;2023-07-20T12:52:36;158522.63;;;31.77;40.59
1776;BME280;885;42.626;23.200;2023-07-20T12:55:04;157306.41;;;31.51;39.71
1776;BME280;885;42.626;23.200;2023-07-20T12:57:31;156040.28;;;31.03;40.66
1776;BME280;885;42.626;23.200;2023-07-20T12:59:58;156875.75;;;31.31;41.45
1776;BME280;885;42.626;23.200;2023-07-20T13:02:24;157293.84;;;31.46;41.86
1776;BME280;885;42.626;23.200;2023-07-20T13:04:52;157308.97;;;31.52;41.21
1776;BME280;885;42.626;23.200;2023-07-20T13:07:29;156894.59;;;31.39;42.46
1776;BME280;885;42.626;23.200;2023-07-20T13:09:57;156499.28;;;31.34;41.82
1776;BME280;885;42.626;23.200;2023-07-20T13:12:25;157306.41;;;31.51;43.07
1776;BME280;885;42.626;23.200;2023-07-20T13:14:52;156913.50;;;31.47;42.36
1776;BME280;885;42.626;23.200;2023-07-20T13:17:19;156087.81;;;31.22;41.68
1776;BME280;885;42.626;23.200;2023-07-20T13:19:46;156462.91;;;31.19;42.82
1776;BME280;885;42.626;23.200;2023-07-20T13:22:14;157296.34;;;31.47;43.86
1776;BME280;885;42.626;23.200;2023-07-20T13:24:41;157724.75;;;31.65;42.99
1776;BME280;885;42.626;23.200;2023-07-20T13:27:08;157722.22;;;31.64;43.13
1776;BME280;885;42.626;23.200;2023-07-20T13:29:34;157671.69;;;31.44;45.40
1776;BME280;885;42.626;23.200;2023-07-20T13:32:02;158480.72;;;31.61;45.50
1776;BME280;885;42.626;23.200;2023-07-20T13:34:29;157675.44;;;31.45;45.04
1776;BME280;885;42.626;23.200;2023-07-20T13:36:56;157233.25;;;31.21;45.21
1776;BME280;885;42.626;23.200;2023-07-20T13:39:25;156407.75;;;30.97;45.07
1776;BME280;885;42.626;23.200;2023-07-20T13:41:53;157234.53;;;31.22;45.71
1776;BME280;885;42.626;23.200;2023-07-20T13:44:20;158460.34;;;31.53;47.53
1776;BME280;885;42.626;23.200;2023-07-20T13:46:47;158487.03;;;31.63;46.28
1776;BME280;885;42.626;23.200;2023-07-20T13:49:13;156493.03;;;31.31;43.57
1776;BME280;885;42.626;23.200;2023-07-20T13:51:41;157273.63;;;31.38;45.67
1776;BME280;885;42.626;23.200;2023-07-20T13:54:07;157684.28;;;31.49;45.17
1776;BME280;885;42.626;23.200;2023-07-20T13:56:36;158513.69;;;31.74;45.56
1776;BME280;885;42.626;23.200;2023-07-20T13:59:02;158126.78;;;31.72;45.11
1776;BME280;885;42.626;23.200;2023-07-20T14:01:29;158558.19;;;31.91;45.21
1776;BME280;885;42.626;23.200;2023-07-20T14:03:58;158984.81;;;32.08;46.28
1776;BME280;885;42.626;23.200;2023-07-20T14:06:25;159407.81;;;32.24;44.43